Time;durP1;ratioP1;P1;durP2;ratioP2;P2;SDS_P1;SDS_P2;PMS_P1;PMS_P2;Temp;Humidity;BMP_temperature;BMP_pressure;BME280_temperature;BME280_humidity;BME280_pressure;Samples;Min_cycle;Max_cycle;Signal;HPM_P1;HPM_P2
2022/10/28 00:01:55;;;;;;;;;;;20.40;72.40;;;;;;5091231;28;946;-66
2022/10/28 00:04:20;;;;;;;;;;;20.40;72.40;;;;;;5089991;28;934;-66
2022/10/28 00:06:45;;;;;;;;;;;20.40;72.40;;;;;;5090827;28;1957;-66
2022/10/28 00:09:11;;;;;;;;;;;20.40;73.10;;;;;;5089461;28;1276;-65
2022/10/28 00:11:36;;;;;;;;;;;20.40;72.40;;;;;;5089104;28;1075;-66
2022/10/28 00:14:02;;;;;;;;;;;20.40;72.40;;;;;;5090531;28;1310;-66
2022/10/28 00:16:28;;;;;;;;;;;20.40;72.40;;;;;;5090846;28;1080;-66
2022/10/28 00:18:54;;;;;;;;;;;20.40;72.40;;;;;;5090226;28;1325;-66
2022/10/28 00:21:23;;;;;;;;;;;20.40;72.40;;;;;;5090037;28;902;-66
2022/10/28 00:23:49;;;;;;;;;;;20.40;72.40;;;;;;5088128;28;1072;-66
2022/10/28 00:26:14;;;;;;;;;;;20.40;72.40;;;;;;5090901;28;1949;-66
2022/10/28 00:28:49;;;;;;;;;;;20.40;72.40;;;;;;5090539;28;1190;-66
2022/10/28 00:31:16;;;;;;;;;;;20.40;72.40;;;;;;5090824;28;985;-66
2022/10/28 00:33:42;;;;;;;;;;;20.40;72.40;;;;;;5089200;28;911;-67
2022/10/28 00:36:08;;;;;;;;;;;20.40;72.40;;;;;;5073435;28;958;-66
2022/10/28 00:38:34;;;;;;;;;;;20.40;72.40;;;;;;5090372;28;1217;-66
2022/10/28 00:40:59;;;;;;;;;;;20.40;72.40;;;;;;5091759;28;803;-66
2022/10/28 00:43:37;;;;;;;;;;;20.40;72.40;;;;;;5091581;28;1283;-66
2022/10/28 00:46:02;;;;;;;;;;;20.40;72.40;;;;;;5088481;28;1922;-66
2022/10/28 00:48:28;;;;;;;;;;;20.40;72.40;;;;;;5087520;28;1311;-65
2022/10/28 00:50:53;;;;;;;;;;;20.40;72.40;;;;;;5088769;28;1394;-67
2022/10/28 00:53:26;;;;;;;;;;;20.40;72.40;;;;;;5072289;28;1367;-67
2022/10/28 00:55:51;;;;;;;;;;;20.40;72.40;;;;;;5072522;28;1348;-67
2022/10/28 00:58:17;;;;;;;;;;;20.40;72.40;;;;;;5074780;28;1417;-66
2022/10/28 01:00:43;;;;;;;;;;;20.40;72.40;;;;;;5077717;28;1555;-66
2022/10/28 01:03:08;;;;;;;;;;;20.40;72.40;;;;;;5094390;28;836;-66
2022/10/28 01:05:35;;;;;;;;;;;20.40;72.40;;;;;;5074729;28;1903;-66
2022/10/28 01:08:00;;;;;;;;;;;20.40;72.40;;;;;;5077986;28;1290;-66
2022/10/28 01:10:39;;;;;;;;;;;20.40;72.40;;;;;;5079264;28;864;-66
2022/10/28 01:13:04;;;;;;;;;;;20.40;72.40;;;;;;5072408;28;1293;-66
2022/10/28 01:15:39;;;;;;;;;;;20.40;72.50;;;;;;5091004;28;866;-66
2022/10/28 01:18:11;;;;;;;;;;;20.40;72.40;;;;;;5074723;28;1357;-66
2022/10/28 01:20:46;;;;;;;;;;;20.40;72.40;;;;;;5077393;28;982;-66
2022/10/28 01:23:23;;;;;;;;;;;20.40;72.50;;;;;;5099293;28;1238;-66
2022/10/28 01:25:54;;;;;;;;;;;20.40;72.40;;;;;;5075078;28;1922;-66
2022/10/28 01:28:24;;;;;;;;;;;20.40;72.50;;;;;;5076645;28;1311;-66
2022/10/28 01:31:04;;;;;;;;;;;20.40;72.40;;;;;;5075236;28;1312;-66
2022/10/28 01:33:32;;;;;;;;;;;20.40;72.50;;;;;;5093215;28;1347;-66
2022/10/28 01:36:07;;;;;;;;;;;20.30;72.40;;;;;;5076127;28;1181;-66
2022/10/28 01:38:40;;;;;;;;;;;20.40;72.40;;;;;;5075735;28;1347;-66
2022/10/28 01:41:26;;;;;;;;;;;20.40;72.40;;;;;;5078754;28;962;-66
2022/10/28 01:43:59;;;;;;;;;;;20.30;72.40;;;;;;5093368;28;1144;-66
2022/10/28 01:46:25;;;;;;;;;;;20.40;72.40;;;;;;5076778;28;1983;-66
2022/10/28 01:48:52;;;;;;;;;;;20.40;72.40;;;;;;5092955;28;1367;-66
2022/10/28 01:51:27;;;;;;;;;;;20.30;72.40;;;;;;5093948;28;903;-66
2022/10/28 01:53:52;;;;;;;;;;;20.40;72.50;;;;;;5093345;28;990;-66
2022/10/28 01:56:20;;;;;;;;;;;20.30;72.40;;;;;;5075191;28;966;-66
2022/10/28 01:58:45;;;;;;;;;;;20.40;72.40;;;;;;5079487;28;1260;-66
2022/10/28 02:01:11;;;;;;;;;;;20.40;72.50;;;;;;5076480;28;890;-66
2022/10/28 02:03:36;;;;;;;;;;;20.40;72.50;;;;;;5092565;28;1021;-66
2022/10/28 02:06:02;;;;;;;;;;;20.30;72.40;;;;;;5073771;28;1906;-66
2022/10/28 02:08:34;;;;;;;;;;;20.40;72.50;;;;;;5074622;28;1372;-66
2022/10/28 02:10:59;;;;;;;;;;;20.40;72.50;;;;;;5092747;28;1306;-66
2022/10/28 02:13:37;;;;;;;;;;;20.40;72.80;;;;;;5094139;28;1380;-66
2022/10/28 02:16:02;;;;;;;;;;;20.30;72.40;;;;;;5094305;28;1414;-66
2022/10/28 02:18:39;;;;;;;;;;;20.40;72.50;;;;;;5093360;28;1368;-67
2022/10/28 02:21:05;;;;;;;;;;;20.30;72.40;;;;;;5075746;28;1026;-66
2022/10/28 02:23:44;;;;;;;;;;;20.30;72.40;;;;;;5076240;28;1124;-66
2022/10/28 02:26:09;;;;;;;;;;;20.30;72.40;;;;;;5078412;28;1894;-66
2022/10/28 02:28:39;;;;;;;;;;;20.30;72.40;;;;;;5093147;28;1357;-66
2022/10/28 02:31:06;;;;;;;;;;;20.40;72.50;;;;;;5075082;28;1073;-66
2022/10/28 02:33:33;;;;;;;;;;;20.30;72.40;;;;;;5074271;28;1403;-67
2022/10/28 02:36:11;;;;;;;;;;;20.30;72.50;;;;;;5056524;28;872;-66
2022/10/28 02:38:57;;;;;;;;;;;20.30;72.40;;;;;;5073010;28;1391;-66
2022/10/28 02:41:24;;;;;;;;;;;20.30;72.40;;;;;;5099941;28;1007;-66
2022/10/28 02:43:50;;;;;;;;;;;20.30;72.40;;;;;;5065515;28;866;-66
2022/10/28 02:46:16;;;;;;;;;;;20.40;72.50;;;;;;5074248;28;1971;-66
2022/10/28 02:49:04;;;;;;;;;;;20.30;72.40;;;;;;5092144;28;1338;-66
2022/10/28 02:51:34;;;;;;;;;;;20.30;72.50;;;;;;5088175;28;1340;-66
2022/10/28 02:54:02;;;;;;;;;;;20.40;72.50;;;;;;5074746;28;857;-66
2022/10/28 02:56:31;;;;;;;;;;;20.30;72.40;;;;;;5092617;28;887;-68
2022/10/28 02:58:57;;;;;;;;;;;20.30;72.50;;;;;;5076135;28;1267;-67
2022/10/28 03:01:22;;;;;;;;;;;20.30;72.50;;;;;;5096347;28;906;-67
2022/10/28 03:03:48;;;;;;;;;;;20.30;72.40;;;;;;5091847;28;883;-66
2022/10/28 03:06:13;;;;;;;;;;;20.30;72.50;;;;;;5075326;28;1922;-66
2022/10/28 03:08:38;;;;;;;;;;;20.30;72.50;;;;;;5092958;28;1271;-66
2022/10/28 03:11:04;;;;;;;;;;;20.30;72.50;;;;;;5092422;28;947;-66
2022/10/28 03:13:29;;;;;;;;;;;20.30;72.50;;;;;;5092022;28;1331;-66
2022/10/28 03:15:55;;;;;;;;;;;20.30;72.50;;;;;;5090788;28;929;-66
2022/10/28 03:18:20;;;;;;;;;;;20.30;72.50;;;;;;5090621;28;1283;-66
2022/10/28 03:20:46;;;;;;;;;;;20.30;72.50;;;;;;5092093;28;942;-66
2022/10/28 03:23:11;;;;;;;;;;;20.30;72.50;;;;;;5094864;28;1022;-67
2022/10/28 03:25:37;;;;;;;;;;;20.30;72.50;;;;;;5099106;28;1069;-66
2022/10/28 03:28:02;;;;;;;;;;;20.30;72.50;;;;;;5095888;28;1898;-66
2022/10/28 03:30:27;;;;;;;;;;;20.30;72.50;;;;;;5074066;28;915;-66
2022/10/28 03:32:53;;;;;;;;;;;20.30;72.60;;;;;;5092275;28;1376;-66
2022/10/28 03:35:18;;;;;;;;;;;20.30;72.50;;;;;;5095219;28;927;-66
2022/10/28 03:37:44;;;;;;;;;;;20.30;72.50;;;;;;5094720;28;1329;-66
2022/10/28 03:40:10;;;;;;;;;;;20.30;72.50;;;;;;5091845;28;903;-66
2022/10/28 03:42:35;;;;;;;;;;;20.30;72.50;;;;;;5092070;28;836;-67
2022/10/28 03:45:01;;;;;;;;;;;20.30;72.50;;;;;;5095293;28;1013;-66
2022/10/28 03:47:26;;;;;;;;;;;20.30;72.50;;;;;;5091316;28;1902;-66
2022/10/28 03:49:51;;;;;;;;;;;20.30;72.50;;;;;;5089530;28;1299;-66
2022/10/28 03:52:17;;;;;;;;;;;20.30;72.50;;;;;;5091647;28;781;-67
2022/10/28 03:54:42;;;;;;;;;;;20.30;72.50;;;;;;5089984;28;815;-66
2022/10/28 03:57:08;;;;;;;;;;;20.30;72.50;;;;;;5092100;28;1225;-67
2022/10/28 03:59:33;;;;;;;;;;;20.30;72.50;;;;;;5094420;28;1248;-67
2022/10/28 04:01:59;;;;;;;;;;;20.30;72.50;;;;;;5091312;28;910;-67
2022/10/28 04:04:24;;;;;;;;;;;20.30;72.50;;;;;;5089591;28;927;-67
2022/10/28 04:06:50;;;;;;;;;;;20.30;72.50;;;;;;5091626;28;1910;-66
2022/10/28 04:09:15;;;;;;;;;;;20.30;72.50;;;;;;5095901;28;1279;-66
2022/10/28 04:11:40;;;;;;;;;;;20.30;72.50;;;;;;5093981;28;862;-66
2022/10/28 04:14:06;;;;;;;;;;;20.30;72.50;;;;;;5091375;28;1441;-67
2022/10/28 04:16:31;;;;;;;;;;;20.30;72.50;;;;;;5091119;28;895;-66
2022/10/28 04:18:57;;;;;;;;;;;20.30;72.40;;;;;;5089290;28;1247;-66
2022/10/28 04:21:22;;;;;;;;;;;20.40;72.40;;;;;;5094255;28;1025;-66
2022/10/28 04:23:48;;;;;;;;;;;20.40;72.30;;;;;;5090102;28;811;-67
2022/10/28 04:26:14;;;;;;;;;;;20.40;72.20;;;;;;5092314;28;1929;-66
2022/10/28 04:28:39;;;;;;;;;;;20.40;72.20;;;;;;5091994;28;1250;-67
2022/10/28 04:31:05;;;;;;;;;;;20.50;72.10;;;;;;5095434;28;942;-67
2022/10/28 04:33:30;;;;;;;;;;;20.50;72.00;;;;;;5094424;28;1108;-66
2022/10/28 04:35:56;;;;;;;;;;;20.50;71.90;;;;;;5095544;28;774;-67
2022/10/28 04:38:21;;;;;;;;;;;20.50;71.80;;;;;;5077567;28;1378;-67
2022/10/28 04:40:47;;;;;;;;;;;20.50;71.70;;;;;;5095577;28;834;-66
2022/10/28 04:43:13;;;;;;;;;;;20.50;71.70;;;;;;5094436;28;878;-67
2022/10/28 04:45:38;;;;;;;;;;;20.50;71.60;;;;;;5094120;28;1085;-67
2022/10/28 04:48:04;;;;;;;;;;;20.50;71.50;;;;;;5094036;28;1957;-67
2022/10/28 04:50:29;;;;;;;;;;;20.60;71.50;;;;;;5094006;28;887;-67
2022/10/28 04:52:55;;;;;;;;;;;20.60;71.50;;;;;;5079540;28;946;-66
2022/10/28 04:55:20;;;;;;;;;;;20.60;71.40;;;;;;5093456;28;898;-66
2022/10/28 04:57:55;;;;;;;;;;;20.60;71.40;;;;;;5096274;28;1277;-66
2022/10/28 05:00:21;;;;;;;;;;;20.60;71.30;;;;;;5095179;28;1085;-66
2022/10/28 05:02:46;;;;;;;;;;;20.60;71.30;;;;;;5094598;28;871;-66
2022/10/28 05:05:13;;;;;;;;;;;20.60;71.20;;;;;;5095101;28;887;-66
2022/10/28 05:07:38;;;;;;;;;;;20.60;71.20;;;;;;5094966;28;1910;-66
2022/10/28 05:10:04;;;;;;;;;;;20.60;71.10;;;;;;5094038;28;941;-66
2022/10/28 05:12:29;;;;;;;;;;;20.70;71.20;;;;;;5092763;28;1314;-66
2022/10/28 05:14:55;;;;;;;;;;;20.70;71.20;;;;;;5077987;28;856;-66
2022/10/28 05:17:20;;;;;;;;;;;20.70;71.10;;;;;;5094819;28;894;-66
2022/10/28 05:19:46;;;;;;;;;;;20.70;71.00;;;;;;5094202;28;1333;-66
2022/10/28 05:22:11;;;;;;;;;;;20.70;71.00;;;;;;5100609;28;847;-66
2022/10/28 05:24:37;;;;;;;;;;;20.70;71.00;;;;;;5097324;28;926;-66
2022/10/28 05:27:03;;;;;;;;;;;20.70;70.90;;;;;;5094580;28;1955;-66
2022/10/28 05:29:28;;;;;;;;;;;20.70;70.90;;;;;;5094412;28;1248;-66
2022/10/28 05:31:54;;;;;;;;;;;20.70;70.80;;;;;;5096171;28;1352;-67
2022/10/28 05:34:19;;;;;;;;;;;20.70;70.90;;;;;;5092416;28;1274;-68
2022/10/28 05:36:44;;;;;;;;;;;20.70;70.80;;;;;;5093744;28;966;-67
2022/10/28 05:39:12;;;;;;;;;;;20.70;70.80;;;;;;5095516;28;1263;-67
2022/10/28 05:41:38;;;;;;;;;;;20.80;70.80;;;;;;5095351;28;843;-67
2022/10/28 05:44:03;;;;;;;;;;;20.80;70.80;;;;;;5096265;28;1029;-67
2022/10/28 05:46:29;;;;;;;;;;;20.80;70.80;;;;;;5093416;28;1949;-67
2022/10/28 05:48:54;;;;;;;;;;;20.80;70.70;;;;;;5093488;28;1268;-67
2022/10/28 05:51:20;;;;;;;;;;;20.80;70.80;;;;;;5092563;28;920;-67
2022/10/28 05:53:45;;;;;;;;;;;20.80;70.80;;;;;;5093992;28;887;-68
2022/10/28 05:56:11;;;;;;;;;;;20.80;70.70;;;;;;5094570;28;908;-67
2022/10/28 05:58:36;;;;;;;;;;;20.80;70.70;;;;;;5095053;28;1238;-68
2022/10/28 06:01:04;;;;;;;;;;;20.80;70.80;;;;;;5094769;28;939;-67
2022/10/28 06:03:30;;;;;;;;;;;20.80;70.80;;;;;;5093284;28;941;-67
2022/10/28 06:05:55;;;;;;;;;;;20.80;70.80;;;;;;5096343;28;1906;-67
2022/10/28 06:08:21;;;;;;;;;;;20.80;70.80;;;;;;5082675;28;1327;-66
2022/10/28 06:10:49;;;;;;;;;;;20.70;70.70;;;;;;5087061;28;1733;-69
2022/10/28 06:13:15;;;;;;;;;;;20.80;70.80;;;;;;5068473;28;2249;-67
2022/10/28 06:15:40;;;;;;;;;;;20.80;70.80;;;;;;5091141;28;1265;-67
2022/10/28 06:18:06;;;;;;;;;;;20.80;70.80;;;;;;5092033;28;1432;-68
2022/10/28 06:20:31;;;;;;;;;;;20.80;70.70;;;;;;5091383;28;863;-68
2022/10/28 06:22:57;;;;;;;;;;;20.80;70.70;;;;;;5091086;28;947;-68
2022/10/28 06:25:22;;;;;;;;;;;20.80;70.70;;;;;;5091395;28;844;-67
2022/10/28 06:27:54;;;;;;;;;;;20.80;70.80;;;;;;5071661;28;1902;-67
2022/10/28 06:30:20;;;;;;;;;;;20.80;70.70;;;;;;5085956;28;1373;-66
2022/10/28 06:32:45;;;;;;;;;;;20.80;70.70;;;;;;5069842;28;1350;-66
2022/10/28 06:35:11;;;;;;;;;;;20.80;70.70;;;;;;5089756;28;838;-67
2022/10/28 06:37:36;;;;;;;;;;;20.80;70.70;;;;;;5094252;28;1293;-66
2022/10/28 06:40:02;;;;;;;;;;;20.80;71.40;;;;;;5091230;28;887;-69
2022/10/28 06:42:27;;;;;;;;;;;20.80;70.60;;;;;;5075366;28;914;-69
2022/10/28 06:44:53;;;;;;;;;;;20.80;70.60;;;;;;5089757;28;839;-68
2022/10/28 06:47:19;;;;;;;;;;;20.80;70.60;;;;;;5073393;28;1910;-68
2022/10/28 06:49:44;;;;;;;;;;;20.80;70.60;;;;;;5091100;28;1343;-67
2022/10/28 06:52:10;;;;;;;;;;;20.80;70.60;;;;;;5073169;28;985;-67
2022/10/28 06:54:35;;;;;;;;;;;20.80;70.60;;;;;;5071918;28;1398;-68
2022/10/28 06:57:00;;;;;;;;;;;20.80;70.60;;;;;;5090717;28;934;-67
2022/10/28 06:59:26;;;;;;;;;;;20.80;70.70;;;;;;5091973;28;1341;-66
2022/10/28 07:01:51;;;;;;;;;;;20.80;70.70;;;;;;5091492;28;891;-66
2022/10/28 07:04:17;;;;;;;;;;;20.80;70.60;;;;;;5090848;28;1053;-66
2022/10/28 07:06:42;;;;;;;;;;;20.80;70.70;;;;;;5053141;28;1930;-66
2022/10/28 07:09:08;;;;;;;;;;;20.80;70.70;;;;;;5030616;28;1280;-66
2022/10/28 07:11:33;;;;;;;;;;;20.80;70.70;;;;;;5018889;28;1281;-66
2022/10/28 07:13:59;;;;;;;;;;;20.80;70.70;;;;;;5096272;28;1323;-66
2022/10/28 07:16:24;;;;;;;;;;;20.80;70.80;;;;;;5092221;28;975;-66
2022/10/28 07:18:50;;;;;;;;;;;20.70;70.70;;;;;;5091002;28;1366;-66
2022/10/28 07:21:17;;;;;;;;;;;20.80;70.80;;;;;;5094620;28;836;-66
2022/10/28 07:23:42;;;;;;;;;;;20.80;70.80;;;;;;5096804;28;828;-66
2022/10/28 07:26:08;;;;;;;;;;;20.80;71.50;;;;;;5072762;28;1894;-66
2022/10/28 07:28:33;;;;;;;;;;;20.80;70.80;;;;;;5095128;28;1382;-66
2022/10/28 07:31:02;;;;;;;;;;;20.80;70.80;;;;;;5092741;28;1010;-66
2022/10/28 07:33:27;;;;;;;;;;;20.70;70.70;;;;;;5071086;28;1543;-67
2022/10/28 07:35:52;;;;;;;;;;;20.80;70.80;;;;;;5091985;28;929;-66
2022/10/28 07:38:55;;;;;;;;;;;20.70;70.70;;;;;;5095992;28;1343;-66
2022/10/28 07:41:21;;;;;;;;;;;20.70;70.70;;;;;;5091139;28;924;-66
2022/10/28 07:43:47;;;;;;;;;;;20.80;70.80;;;;;;5073070;28;1076;-67
2022/10/28 07:46:12;;;;;;;;;;;20.80;70.70;;;;;;5092092;28;1974;-67
2022/10/28 07:48:38;;;;;;;;;;;20.80;70.70;;;;;;5090270;28;1272;-67
2022/10/28 07:51:04;;;;;;;;;;;20.80;70.70;;;;;;5093036;28;891;-67
2022/10/28 07:53:29;;;;;;;;;;;20.80;70.70;;;;;;5071960;28;919;-67
2022/10/28 07:55:55;;;;;;;;;;;20.80;70.70;;;;;;5095477;28;1014;-67
2022/10/28 07:58:21;;;;;;;;;;;20.80;70.70;;;;;;5097682;28;1256;-67
2022/10/28 08:00:47;;;;;;;;;;;20.80;70.60;;;;;;5092871;28;1029;-67
2022/10/28 08:03:12;;;;;;;;;;;20.80;70.70;;;;;;5088480;28;1164;-67
2022/10/28 08:05:38;;;;;;;;;;;20.80;70.70;;;;;;5092325;28;1276;-67
2022/10/28 08:08:03;;;;;;;;;;;20.80;70.70;;;;;;5097515;28;1933;-66
2022/10/28 08:10:29;;;;;;;;;;;20.80;70.70;;;;;;5091344;28;959;-66
2022/10/28 08:12:55;;;;;;;;;;;20.80;70.70;;;;;;5091039;28;909;-67
2022/10/28 08:15:22;;;;;;;;;;;20.80;70.70;;;;;;5071973;28;1822;-66
2022/10/28 08:17:51;;;;;;;;;;;20.80;70.70;;;;;;5090866;28;1197;-67
2022/10/28 08:20:16;;;;;;;;;;;20.80;70.70;;;;;;5090328;28;875;-66
2022/10/28 08:22:42;;;;;;;;;;;20.80;70.70;;;;;;5092837;28;909;-66
2022/10/28 08:25:07;;;;;;;;;;;20.80;70.80;;;;;;5089715;28;886;-67
2022/10/28 08:27:33;;;;;;;;;;;20.80;70.80;;;;;;5089667;28;1960;-66
2022/10/28 08:29:58;;;;;;;;;;;20.80;71.50;;;;;;5072742;28;1017;-67
2022/10/28 08:32:24;;;;;;;;;;;20.80;70.80;;;;;;5092280;28;1332;-67
2022/10/28 08:34:49;;;;;;;;;;;20.70;70.80;;;;;;5089378;28;839;-66
2022/10/28 08:37:15;;;;;;;;;;;20.70;70.80;;;;;;5090808;28;859;-67
2022/10/28 08:39:40;;;;;;;;;;;20.70;70.80;;;;;;5091756;28;1239;-67
2022/10/28 08:42:24;;;;;;;;;;;20.70;70.80;;;;;;5077708;28;1404;-68
2022/10/28 08:44:59;;;;;;;;;;;20.70;70.80;;;;;;5092621;28;926;-68
2022/10/28 08:47:28;;;;;;;;;;;20.70;70.90;;;;;;5077027;28;1973;-68
2022/10/28 08:49:54;;;;;;;;;;;20.70;70.90;;;;;;5053669;28;1316;-66
2022/10/28 08:52:26;;;;;;;;;;;20.70;70.90;;;;;;5077518;28;1447;-66
2022/10/28 08:54:56;;;;;;;;;;;20.70;71.00;;;;;;5091603;28;859;-66
2022/10/28 08:57:38;;;;;;;;;;;20.70;71.00;;;;;;5073554;28;1497;-66
2022/10/28 09:00:17;;;;;;;;;;;20.70;71.00;;;;;;5074470;28;906;-67
2022/10/28 09:02:46;;;;;;;;;;;20.70;71.00;;;;;;5074343;28;818;-67
2022/10/28 09:05:18;;;;;;;;;;;20.70;71.10;;;;;;5071466;28;906;-67
2022/10/28 09:07:43;;;;;;;;;;;20.70;71.10;;;;;;5087997;28;1897;-67
2022/10/28 09:10:09;;;;;;;;;;;20.70;71.10;;;;;;5091006;28;1022;-65
2022/10/28 09:12:41;;;;;;;;;;;20.70;71.10;;;;;;5072502;28;1043;-65
2022/10/28 09:15:27;;;;;;;;;;;20.70;71.00;;;;;;5070662;28;1098;-65
2022/10/28 09:17:54;;;;;;;;;;;20.60;71.00;;;;;;5074660;28;1575;-65
2022/10/28 09:20:20;;;;;;;;;;;20.60;70.30;;;;;;5092470;28;1412;-65
2022/10/28 09:22:52;;;;;;;;;;;20.70;70.20;;;;;;5072475;28;1325;-65
2022/10/28 09:25:35;;;;;;;;;;;20.60;70.40;;;;;;5090400;28;1315;-65
2022/10/28 09:28:39;;;;;;;;;;;20.70;70.20;;;;;;5095618;28;1889;-64
2022/10/28 09:31:11;;;;;;;;;;;20.70;69.90;;;;;;5029556;28;1423;-65
2022/10/28 09:33:39;;;;;;;;;;;20.70;69.60;;;;;;5022559;28;1002;-65
2022/10/28 09:36:05;;;;;;;;;;;20.70;69.70;;;;;;5046477;28;1004;-65
2022/10/28 09:38:31;;;;;;;;;;;20.70;69.70;;;;;;5078651;28;1276;-65
2022/10/28 09:40:59;;;;;;;;;;;20.70;69.20;;;;;;5076397;28;1025;-65
2022/10/28 09:43:29;;;;;;;;;;;20.70;69.20;;;;;;5076544;28;1105;-65
2022/10/28 09:45:56;;;;;;;;;;;20.70;68.70;;;;;;5073696;28;1910;-65
2022/10/28 09:48:23;;;;;;;;;;;20.70;68.70;;;;;;5087103;28;1368;-67
2022/10/28 09:50:48;;;;;;;;;;;20.70;68.90;;;;;;5076839;28;1192;-66
2022/10/28 09:53:20;;;;;;;;;;;20.70;68.80;;;;;;5077198;28;871;-66
2022/10/28 09:55:45;;;;;;;;;;;20.70;68.70;;;;;;5080834;28;1712;-67
2022/10/28 09:58:11;;;;;;;;;;;20.70;68.90;;;;;;5092628;28;1269;-67
2022/10/28 10:00:36;;;;;;;;;;;20.70;69.30;;;;;;5075622;28;840;-66
2022/10/28 10:03:02;;;;;;;;;;;20.70;69.40;;;;;;5074188;28;1006;-66
2022/10/28 10:05:29;;;;;;;;;;;20.70;69.50;;;;;;5076138;28;1381;-66
2022/10/28 10:07:56;;;;;;;;;;;20.60;69.60;;;;;;5074219;28;2005;-66
2022/10/28 10:10:22;;;;;;;;;;;20.60;69.70;;;;;;5093968;28;780;-66
2022/10/28 10:12:48;;;;;;;;;;;20.60;69.80;;;;;;5076498;28;1379;-67
2022/10/28 10:15:24;;;;;;;;;;;20.60;69.90;;;;;;5092888;28;824;-66
2022/10/28 10:17:49;;;;;;;;;;;20.60;69.90;;;;;;5074134;28;1407;-66
2022/10/28 10:20:16;;;;;;;;;;;20.60;70.00;;;;;;5092721;28;828;-67
2022/10/28 10:22:42;;;;;;;;;;;20.60;70.10;;;;;;5075048;28;1034;-66
2022/10/28 10:25:17;;;;;;;;;;;20.60;70.10;;;;;;5073638;28;852;-67
2022/10/28 10:27:49;;;;;;;;;;;20.60;70.20;;;;;;5094883;28;1955;-66
2022/10/28 10:30:17;;;;;;;;;;;20.60;70.30;;;;;;5073856;28;2144;-66
2022/10/28 10:32:45;;;;;;;;;;;20.60;70.40;;;;;;5084170;28;1463;-67
2022/10/28 10:35:11;;;;;;;;;;;20.60;70.40;;;;;;5066916;28;1293;-67
2022/10/28 10:37:37;;;;;;;;;;;20.50;70.30;;;;;;5091190;28;1378;-66
2022/10/28 10:40:04;;;;;;;;;;;20.60;70.50;;;;;;5076416;28;1347;-67
2022/10/28 10:42:29;;;;;;;;;;;20.60;70.50;;;;;;5092823;28;899;-67
2022/10/28 10:44:59;;;;;;;;;;;20.50;70.50;;;;;;5089487;28;1384;-67
2022/10/28 10:47:24;;;;;;;;;;;20.60;70.60;;;;;;5091264;28;1917;-66
2022/10/28 10:49:50;;;;;;;;;;;20.50;70.80;;;;;;5091426;28;1270;-67
2022/10/28 10:52:17;;;;;;;;;;;20.50;70.70;;;;;;5089403;28;1279;-67
2022/10/28 10:54:45;;;;;;;;;;;20.50;70.70;;;;;;5072292;28;1640;-66
2022/10/28 10:57:15;;;;;;;;;;;20.50;70.70;;;;;;5071224;28;1357;-67
2022/10/28 10:59:40;;;;;;;;;;;20.50;70.80;;;;;;5089052;28;1394;-67
2022/10/28 11:02:18;;;;;;;;;;;20.50;70.80;;;;;;5069067;28;1588;-66
2022/10/28 11:04:47;;;;;;;;;;;20.50;70.80;;;;;;5069345;28;1326;-70
2022/10/28 11:07:12;;;;;;;;;;;20.50;70.90;;;;;;5084162;28;1909;-69
2022/10/28 11:09:38;;;;;;;;;;;20.50;70.90;;;;;;5088895;28;1313;-68
2022/10/28 11:12:23;;;;;;;;;;;20.50;71.00;;;;;;5088375;28;1383;-67
2022/10/28 11:14:54;;;;;;;;;;;20.50;70.90;;;;;;5090971;28;998;-67
2022/10/28 11:17:21;;;;;;;;;;;20.50;71.00;;;;;;5090186;28;935;-67
2022/10/28 11:19:47;;;;;;;;;;;20.50;71.00;;;;;;5071257;28;1394;-67
2022/10/28 11:22:15;;;;;;;;;;;20.50;71.00;;;;;;5077494;28;1296;-68
2022/10/28 11:24:44;;;;;;;;;;;20.50;71.10;;;;;;5091933;28;918;-68
2022/10/28 11:27:35;;;;;;;;;;;20.50;71.10;;;;;;5091321;28;1905;-67
2022/10/28 11:30:01;;;;;;;;;;;20.50;71.10;;;;;;5055964;28;2118;-68
2022/10/28 11:32:40;;;;;;;;;;;20.50;71.10;;;;;;5080848;28;1431;-68
2022/10/28 11:35:15;;;;;;;;;;;20.50;71.10;;;;;;5071687;28;888;-67
2022/10/28 11:37:40;;;;;;;;;;;20.50;71.20;;;;;;5090534;28;1290;-68
2022/10/28 11:40:15;;;;;;;;;;;20.50;71.20;;;;;;5089959;28;1065;-67
2022/10/28 11:42:44;;;;;;;;;;;20.50;71.20;;;;;;5073169;28;1555;-67
2022/10/28 11:45:13;;;;;;;;;;;20.40;71.20;;;;;;5072946;28;907;-67
2022/10/28 11:47:44;;;;;;;;;;;20.40;71.20;;;;;;5090909;28;1974;-68
2022/10/28 11:50:10;;;;;;;;;;;20.50;71.30;;;;;;5090093;28;1229;-67
2022/10/28 11:52:41;;;;;;;;;;;20.50;71.30;;;;;;5091857;28;1283;-68
2022/10/28 11:55:39;;;;;;;;;;;20.40;71.20;;;;;;5091656;28;1064;-67
2022/10/28 11:58:23;;;;;;;;;;;20.50;71.30;;;;;;5068336;28;2119;-68
2022/10/28 12:01:07;;;;;;;;;;;20.50;71.30;;;;;;5089808;28;1920;-70
2022/10/28 12:03:38;;;;;;;;;;;20.50;71.40;;;;;;5087841;28;1925;-69
2022/10/28 12:06:06;;;;;;;;;;;20.40;71.40;;;;;;5093336;28;1963;-69
2022/10/28 12:08:50;;;;;;;;;;;20.40;71.40;;;;;;5095865;28;1378;-68
2022/10/28 12:11:15;;;;;;;;;;;20.50;71.40;;;;;;5096399;28;1113;-69
2022/10/28 12:13:44;;;;;;;;;;;20.40;71.40;;;;;;5087296;28;1249;-69
2022/10/28 12:16:09;;;;;;;;;;;20.40;71.50;;;;;;5062087;28;1284;-69
2022/10/28 12:18:46;;;;;;;;;;;20.50;71.50;;;;;;5081574;28;1413;-69
2022/10/28 12:21:12;;;;;;;;;;;20.50;71.50;;;;;;5072452;28;1376;-69
2022/10/28 12:23:37;;;;;;;;;;;20.50;71.50;;;;;;5090838;28;847;-69
2022/10/28 12:26:03;;;;;;;;;;;20.50;71.50;;;;;;5072040;28;1894;-69
2022/10/28 12:28:30;;;;;;;;;;;20.50;71.50;;;;;;5091527;28;1273;-69
2022/10/28 12:30:55;;;;;;;;;;;20.50;71.60;;;;;;5074372;28;850;-69
2022/10/28 12:33:27;;;;;;;;;;;20.40;71.80;;;;;;5090256;28;1352;-69
2022/10/28 12:36:07;;;;;;;;;;;20.40;71.60;;;;;;5093733;28;868;-69
2022/10/28 12:38:35;;;;;;;;;;;20.50;71.60;;;;;;5091028;28;1305;-69
2022/10/28 12:41:09;;;;;;;;;;;20.40;71.60;;;;;;5079326;28;1022;-69
2022/10/28 12:43:40;;;;;;;;;;;20.40;71.60;;;;;;5096461;28;1002;-68
2022/10/28 12:46:07;;;;;;;;;;;20.40;71.60;;;;;;5089614;28;2147;-69
2022/10/28 12:48:38;;;;;;;;;;;20.50;71.70;;;;;;5087031;28;1599;-69
2022/10/28 12:51:10;;;;;;;;;;;20.40;71.60;;;;;;5072435;28;1399;-70
2022/10/28 12:53:38;;;;;;;;;;;20.40;71.70;;;;;;5094234;28;1437;-68
2022/10/28 12:56:06;;;;;;;;;;;20.40;71.70;;;;;;5075604;28;1299;-69
2022/10/28 12:58:35;;;;;;;;;;;20.40;71.70;;;;;;5073693;28;1417;-69
2022/10/28 13:01:02;;;;;;;;;;;20.40;71.70;;;;;;5071863;28;1323;-69
2022/10/28 13:03:28;;;;;;;;;;;20.40;71.70;;;;;;5073507;28;1429;-68
2022/10/28 13:06:12;;;;;;;;;;;20.40;71.70;;;;;;5096137;28;1410;-70
2022/10/28 13:08:56;;;;;;;;;;;20.40;71.70;;;;;;5094576;28;1498;-70
2022/10/28 13:11:27;;;;;;;;;;;20.40;71.70;;;;;;5093557;28;998;-69
2022/10/28 13:14:11;;;;;;;;;;;20.40;71.70;;;;;;5093511;28;1014;-69
2022/10/28 13:16:43;;;;;;;;;;;20.40;71.80;;;;;;5094254;28;1101;-69
2022/10/28 13:19:20;;;;;;;;;;;20.40;71.70;;;;;;5093595;28;1294;-70
2022/10/28 13:21:45;;;;;;;;;;;20.40;71.80;;;;;;5094403;28;856;-70
2022/10/28 13:24:15;;;;;;;;;;;20.40;71.80;;;;;;5093204;28;1040;-69
2022/10/28 13:26:41;;;;;;;;;;;20.40;71.80;;;;;;5094833;28;1976;-70
2022/10/28 13:29:06;;;;;;;;;;;20.40;71.80;;;;;;5077608;28;1385;-69
2022/10/28 13:31:41;;;;;;;;;;;20.40;71.80;;;;;;5094694;28;981;-70
2022/10/28 13:34:07;;;;;;;;;;;20.40;71.80;;;;;;5073480;28;867;-68
2022/10/28 13:36:37;;;;;;;;;;;20.40;71.90;;;;;;5080422;28;852;-69
2022/10/28 13:39:03;;;;;;;;;;;20.40;71.80;;;;;;5075318;28;1283;-69
2022/10/28 13:41:35;;;;;;;;;;;20.40;71.90;;;;;;5074992;28;1344;-69
2022/10/28 13:44:07;;;;;;;;;;;20.40;71.90;;;;;;5093019;28;787;-71
2022/10/28 13:46:51;;;;;;;;;;;20.40;71.90;;;;;;5092505;28;1897;-69
2022/10/28 13:49:34;;;;;;;;;;;20.40;71.90;;;;;;5092532;28;1286;-68
2022/10/28 13:52:17;;;;;;;;;;;20.40;71.90;;;;;;5092502;28;804;-70
2022/10/28 13:54:42;;;;;;;;;;;20.40;71.90;;;;;;5074056;28;865;-70
2022/10/28 13:57:10;;;;;;;;;;;20.40;71.90;;;;;;5092933;28;873;-68
2022/10/28 13:59:47;;;;;;;;;;;20.40;71.90;;;;;;5073046;28;1272;-67
2022/10/28 14:02:17;;;;;;;;;;;20.40;72.00;;;;;;5076004;28;1105;-67
2022/10/28 14:04:43;;;;;;;;;;;20.40;72.00;;;;;;5074052;28;809;-68
2022/10/28 14:07:11;;;;;;;;;;;20.40;72.00;;;;;;5079091;28;1922;-68
2022/10/28 14:09:37;;;;;;;;;;;20.40;72.00;;;;;;5092593;28;1214;-69
2022/10/28 14:12:04;;;;;;;;;;;20.40;72.00;;;;;;5094905;28;1288;-68
2022/10/28 14:14:29;;;;;;;;;;;20.40;72.00;;;;;;5075385;28;852;-68
2022/10/28 14:16:55;;;;;;;;;;;20.40;72.00;;;;;;5092662;28;1068;-68
2022/10/28 14:19:20;;;;;;;;;;;20.40;72.00;;;;;;5073940;28;1352;-68
2022/10/28 14:22:04;;;;;;;;;;;20.40;72.00;;;;;;5093325;28;1646;-68
2022/10/28 14:24:30;;;;;;;;;;;20.40;72.00;;;;;;5073426;28;1108;-67
2022/10/28 14:27:05;;;;;;;;;;;20.40;72.00;;;;;;5092498;28;1956;-68
2022/10/28 14:29:31;;;;;;;;;;;20.40;72.00;;;;;;5095121;28;1240;-68
2022/10/28 14:31:56;;;;;;;;;;;20.40;72.00;;;;;;5092574;28;1385;-67
2022/10/28 14:34:21;;;;;;;;;;;20.40;72.10;;;;;;5091366;28;1280;-67
2022/10/28 14:36:57;;;;;;;;;;;20.40;72.00;;;;;;5093100;28;1580;-67
2022/10/28 14:39:34;;;;;;;;;;;20.40;72.00;;;;;;5079075;28;1227;-67
2022/10/28 14:42:17;;;;;;;;;;;20.40;72.00;;;;;;5067690;28;887;-67